sensor_id;sensor_type;location;lat;lon;timestamp;temperature;humidity
9919;DHT22;4998;51.024;13.828;2022-09-24T00:01:27;14.60;67.70
9919;DHT22;4998;51.024;13.828;2022-09-24T00:03:55;14.60;67.80
9919;DHT22;4998;51.024;13.828;2022-09-24T00:06:24;14.60;68.00
9919;DHT22;4998;51.024;13.828;2022-09-24T00:08:53;14.50;67.90
9919;DHT22;4998;51.024;13.828;2022-09-24T00:11:23;14.50;68.00
9919;DHT22;4998;51.024;13.828;2022-09-24T00:13:51;14.50;68.20
9919;DHT22;4998;51.024;13.828;2022-09-24T00:16:20;14.50;68.30
9919;DHT22;4998;51.024;13.828;2022-09-24T00:18:47;14.50;68.40
9919;DHT22;4998;51.024;13.828;2022-09-24T00:21:16;14.50;68.40
9919;DHT22;4998;51.024;13.828;2022-09-24T00:23:43;14.50;68.40
9919;DHT22;4998;51.024;13.828;2022-09-24T00:26:11;14.50;68.50
9919;DHT22;4998;51.024;13.828;2022-09-24T00:28:58;14.50;68.60
9919;DHT22;4998;51.024;13.828;2022-09-24T00:31:25;14.50;68.80
9919;DHT22;4998;51.024;13.828;2022-09-24T00:33:52;14.40;68.60
9919;DHT22;4998;51.024;13.828;2022-09-24T00:36:20;14.40;68.70
9919;DHT22;4998;51.024;13.828;2022-09-24T00:38:48;14.40;68.70
9919;DHT22;4998;51.024;13.828;2022-09-24T00:41:16;14.50;68.80
9919;DHT22;4998;51.024;13.828;2022-09-24T00:43:45;14.40;68.80
9919;DHT22;4998;51.024;13.828;2022-09-24T00:46:18;14.40;69.00
9919;DHT22;4998;51.024;13.828;2022-09-24T00:48:48;14.40;69.10
9919;DHT22;4998;51.024;13.828;2022-09-24T00:51:18;14.40;69.00
9919;DHT22;4998;51.024;13.828;2022-09-24T00:53:54;14.40;69.10
9919;DHT22;4998;51.024;13.828;2022-09-24T00:56:22;14.50;69.40
9919;DHT22;4998;51.024;13.828;2022-09-24T00:58:53;14.40;69.20
9919;DHT22;4998;51.024;13.828;2022-09-24T01:01:23;14.40;69.30
9919;DHT22;4998;51.024;13.828;2022-09-24T01:03:52;14.40;69.20
9919;DHT22;4998;51.024;13.828;2022-09-24T01:06:20;14.40;69.30
9919;DHT22;4998;51.024;13.828;2022-09-24T01:08:47;14.40;69.30
9919;DHT22;4998;51.024;13.828;2022-09-24T01:11:29;14.40;69.30
9919;DHT22;4998;51.024;13.828;2022-09-24T01:17:05;14.30;69.30
9919;DHT22;4998;51.024;13.828;2022-09-24T01:19:52;14.30;69.20
9919;DHT22;4998;51.024;13.828;2022-09-24T01:22:37;14.30;69.40
9919;DHT22;4998;51.024;13.828;2022-09-24T01:25:17;14.30;69.40
9919;DHT22;4998;51.024;13.828;2022-09-24T01:28:03;14.30;69.40
9919;DHT22;4998;51.024;13.828;2022-09-24T01:30:37;14.30;69.50
9919;DHT22;4998;51.024;13.828;2022-09-24T01:33:08;14.30;69.40
9919;DHT22;4998;51.024;13.828;2022-09-24T01:35:41;14.30;69.40
9919;DHT22;4998;51.024;13.828;2022-09-24T01:38:13;14.20;69.20
9919;DHT22;4998;51.024;13.828;2022-09-24T01:40:41;14.20;69.30
9919;DHT22;4998;51.024;13.828;2022-09-24T01:43:10;14.20;69.30
9919;DHT22;4998;51.024;13.828;2022-09-24T01:45:39;14.20;69.40
9919;DHT22;4998;51.024;13.828;2022-09-24T01:48:07;14.20;69.50
9919;DHT22;4998;51.024;13.828;2022-09-24T01:50:39;14.20;69.60
9919;DHT22;4998;51.024;13.828;2022-09-24T01:53:11;14.20;69.80
9919;DHT22;4998;51.024;13.828;2022-09-24T01:55:44;14.20;69.80
9919;DHT22;4998;51.024;13.828;2022-09-24T01:58:17;14.20;69.80
9919;DHT22;4998;51.024;13.828;2022-09-24T02:00:52;14.20;70.00
9919;DHT22;4998;51.024;13.828;2022-09-24T02:03:25;14.20;70.10
9919;DHT22;4998;51.024;13.828;2022-09-24T02:05:58;14.10;70.00
9919;DHT22;4998;51.024;13.828;2022-09-24T02:08:31;14.20;70.20
9919;DHT22;4998;51.024;13.828;2022-09-24T02:11:02;14.10;70.30
9919;DHT22;4998;51.024;13.828;2022-09-24T02:13:33;14.10;70.60
9919;DHT22;4998;51.024;13.828;2022-09-24T02:16:07;14.10;71.00
9919;DHT22;4998;51.024;13.828;2022-09-24T02:18:38;14.10;71.10
9919;DHT22;4998;51.024;13.828;2022-09-24T02:21:09;14.10;71.00
9919;DHT22;4998;51.024;13.828;2022-09-24T02:23:40;14.10;71.10
9919;DHT22;4998;51.024;13.828;2022-09-24T02:26:09;14.00;71.00
9919;DHT22;4998;51.024;13.828;2022-09-24T02:28:36;14.00;70.70
9919;DHT22;4998;51.024;13.828;2022-09-24T02:31:07;14.00;70.70
9919;DHT22;4998;51.024;13.828;2022-09-24T02:33:36;14.00;70.80
9919;DHT22;4998;51.024;13.828;2022-09-24T02:36:37;13.90;70.80
9919;DHT22;4998;51.024;13.828;2022-09-24T02:39:05;13.90;70.70
9919;DHT22;4998;51.024;13.828;2022-09-24T02:41:33;13.90;70.60
9919;DHT22;4998;51.024;13.828;2022-09-24T02:44:00;13.90;70.70
9919;DHT22;4998;51.024;13.828;2022-09-24T02:46:28;13.80;70.70
9919;DHT22;4998;51.024;13.828;2022-09-24T02:48:55;13.80;70.90
9919;DHT22;4998;51.024;13.828;2022-09-24T02:51:22;13.80;70.80
9919;DHT22;4998;51.024;13.828;2022-09-24T02:53:50;13.70;70.80
9919;DHT22;4998;51.024;13.828;2022-09-24T02:56:17;13.70;70.90
9919;DHT22;4998;51.024;13.828;2022-09-24T02:58:43;13.70;71.00
9919;DHT22;4998;51.024;13.828;2022-09-24T03:01:10;13.60;70.90
9919;DHT22;4998;51.024;13.828;2022-09-24T03:03:38;13.60;71.10
9919;DHT22;4998;51.024;13.828;2022-09-24T03:06:06;13.60;71.20
9919;DHT22;4998;51.024;13.828;2022-09-24T03:08:33;13.50;71.10
9919;DHT22;4998;51.024;13.828;2022-09-24T03:11:00;13.50;71.20
9919;DHT22;4998;51.024;13.828;2022-09-24T03:13:27;13.50;71.40
9919;DHT22;4998;51.024;13.828;2022-09-24T03:15:54;13.40;71.40
9919;DHT22;4998;51.024;13.828;2022-09-24T03:18:21;13.50;71.60
9919;DHT22;4998;51.024;13.828;2022-09-24T03:20:56;13.40;71.70
9919;DHT22;4998;51.024;13.828;2022-09-24T03:23:23;13.30;71.90
9919;DHT22;4998;51.024;13.828;2022-09-24T03:25:50;13.30;71.80
9919;DHT22;4998;51.024;13.828;2022-09-24T03:28:17;13.40;72.00
9919;DHT22;4998;51.024;13.828;2022-09-24T03:30:44;13.30;72.00
9919;DHT22;4998;51.024;13.828;2022-09-24T03:33:28;13.30;72.10
9919;DHT22;4998;51.024;13.828;2022-09-24T03:36:00;13.30;72.30
9919;DHT22;4998;51.024;13.828;2022-09-24T03:38:28;13.20;72.40
9919;DHT22;4998;51.024;13.828;2022-09-24T03:40:55;13.20;72.30
9919;DHT22;4998;51.024;13.828;2022-09-24T03:43:22;13.20;72.40
9919;DHT22;4998;51.024;13.828;2022-09-24T03:45:49;13.10;72.40
9919;DHT22;4998;51.024;13.828;2022-09-24T03:48:17;13.10;72.60
9919;DHT22;4998;51.024;13.828;2022-09-24T03:50:44;13.10;72.70
9919;DHT22;4998;51.024;13.828;2022-09-24T03:53:13;13.10;72.70
9919;DHT22;4998;51.024;13.828;2022-09-24T03:55:44;13.10;73.00
9919;DHT22;4998;51.024;13.828;2022-09-24T03:58:11;13.10;73.10
9919;DHT22;4998;51.024;13.828;2022-09-24T04:00:38;13.10;73.00
9919;DHT22;4998;51.024;13.828;2022-09-24T04:03:05;13.10;73.00
9919;DHT22;4998;51.024;13.828;2022-09-24T04:05:32;13.00;72.90
9919;DHT22;4998;51.024;13.828;2022-09-24T04:08:00;13.00;72.90
9919;DHT22;4998;51.024;13.828;2022-09-24T04:10:29;13.00;73.20
9919;DHT22;4998;51.024;13.828;2022-09-24T04:12:56;12.90;73.20
9919;DHT22;4998;51.024;13.828;2022-09-24T04:15:23;12.90;73.20
9919;DHT22;4998;51.024;13.828;2022-09-24T04:17:50;12.90;73.30
9919;DHT22;4998;51.024;13.828;2022-09-24T04:20:18;12.90;73.40
9919;DHT22;4998;51.024;13.828;2022-09-24T04:22:48;12.90;73.40
9919;DHT22;4998;51.024;13.828;2022-09-24T04:25:15;12.90;73.50
9919;DHT22;4998;51.024;13.828;2022-09-24T04:27:44;12.90;73.60
9919;DHT22;4998;51.024;13.828;2022-09-24T04:30:12;12.80;73.60
9919;DHT22;4998;51.024;13.828;2022-09-24T04:32:39;12.80;73.80
9919;DHT22;4998;51.024;13.828;2022-09-24T04:35:08;12.80;73.90
9919;DHT22;4998;51.024;13.828;2022-09-24T04:37:35;12.80;74.00
9919;DHT22;4998;51.024;13.828;2022-09-24T04:40:03;12.80;74.00
9919;DHT22;4998;51.024;13.828;2022-09-24T04:42:30;12.80;74.10
9919;DHT22;4998;51.024;13.828;2022-09-24T04:44:58;12.80;74.20
9919;DHT22;4998;51.024;13.828;2022-09-24T04:47:25;12.80;74.30
9919;DHT22;4998;51.024;13.828;2022-09-24T04:49:52;12.80;74.30
9919;DHT22;4998;51.024;13.828;2022-09-24T04:52:19;12.80;74.40
9919;DHT22;4998;51.024;13.828;2022-09-24T04:54:49;12.70;74.40
9919;DHT22;4998;51.024;13.828;2022-09-24T04:57:16;12.80;74.60
9919;DHT22;4998;51.024;13.828;2022-09-24T04:59:43;12.70;74.40
9919;DHT22;4998;51.024;13.828;2022-09-24T05:02:11;12.70;74.40
9919;DHT22;4998;51.024;13.828;2022-09-24T05:04:38;12.70;74.60
9919;DHT22;4998;51.024;13.828;2022-09-24T05:07:05;12.70;74.50
9919;DHT22;4998;51.024;13.828;2022-09-24T05:09:32;12.70;74.60
9919;DHT22;4998;51.024;13.828;2022-09-24T05:11:59;12.70;74.70
9919;DHT22;4998;51.024;13.828;2022-09-24T05:14:26;12.60;74.80
9919;DHT22;4998;51.024;13.828;2022-09-24T05:16:53;12.60;74.90
9919;DHT22;4998;51.024;13.828;2022-09-24T05:19:22;12.70;75.20
9919;DHT22;4998;51.024;13.828;2022-09-24T05:21:49;12.60;75.40
9919;DHT22;4998;51.024;13.828;2022-09-24T05:24:16;12.60;75.50
9919;DHT22;4998;51.024;13.828;2022-09-24T05:26:43;12.70;75.80
9919;DHT22;4998;51.024;13.828;2022-09-24T05:29:27;12.70;76.00
9919;DHT22;4998;51.024;13.828;2022-09-24T05:31:54;12.70;76.10
9919;DHT22;4998;51.024;13.828;2022-09-24T05:34:22;12.70;76.20
9919;DHT22;4998;51.024;13.828;2022-09-24T05:36:49;12.80;76.40
9919;DHT22;4998;51.024;13.828;2022-09-24T05:39:16;12.80;76.50
9919;DHT22;4998;51.024;13.828;2022-09-24T05:41:43;12.90;76.80
9919;DHT22;4998;51.024;13.828;2022-09-24T05:44:10;12.90;76.80
9919;DHT22;4998;51.024;13.828;2022-09-24T05:46:36;13.00;77.00
9919;DHT22;4998;51.024;13.828;2022-09-24T05:49:03;13.00;77.00
9919;DHT22;4998;51.024;13.828;2022-09-24T05:51:31;13.10;77.10
9919;DHT22;4998;51.024;13.828;2022-09-24T05:53:58;13.10;77.10
9919;DHT22;4998;51.024;13.828;2022-09-24T05:56:25;13.20;77.10
9919;DHT22;4998;51.024;13.828;2022-09-24T05:58:52;13.30;77.20
9919;DHT22;4998;51.024;13.828;2022-09-24T06:01:19;13.30;77.00
9919;DHT22;4998;51.024;13.828;2022-09-24T06:03:46;13.30;76.90
9919;DHT22;4998;51.024;13.828;2022-09-24T06:06:13;13.40;77.00
9919;DHT22;4998;51.024;13.828;2022-09-24T06:08:41;13.40;77.10
9919;DHT22;4998;51.024;13.828;2022-09-24T06:11:08;13.50;77.10
9919;DHT22;4998;51.024;13.828;2022-09-24T06:13:35;13.50;77.00
9919;DHT22;4998;51.024;13.828;2022-09-24T06:16:04;13.50;77.10
9919;DHT22;4998;51.024;13.828;2022-09-24T06:18:32;13.60;77.10
9919;DHT22;4998;51.024;13.828;2022-09-24T06:21:01;13.60;77.10
9919;DHT22;4998;51.024;13.828;2022-09-24T06:23:29;13.60;77.10
9919;DHT22;4998;51.024;13.828;2022-09-24T06:25:57;13.70;77.10
9919;DHT22;4998;51.024;13.828;2022-09-24T06:28:24;13.70;77.10
9919;DHT22;4998;51.024;13.828;2022-09-24T06:30:52;13.80;77.30
9919;DHT22;4998;51.024;13.828;2022-09-24T06:33:19;13.90;77.40
9919;DHT22;4998;51.024;13.828;2022-09-24T06:35:47;13.90;77.50
9919;DHT22;4998;51.024;13.828;2022-09-24T06:38:15;13.90;77.50
9919;DHT22;4998;51.024;13.828;2022-09-24T06:40:44;14.00;77.70
9919;DHT22;4998;51.024;13.828;2022-09-24T06:43:13;14.00;77.90
9919;DHT22;4998;51.024;13.828;2022-09-24T06:45:42;14.10;78.10
9919;DHT22;4998;51.024;13.828;2022-09-24T06:48:11;14.10;77.90
9919;DHT22;4998;51.024;13.828;2022-09-24T06:50:39;14.20;78.10
9919;DHT22;4998;51.024;13.828;2022-09-24T06:53:07;14.30;78.10
9919;DHT22;4998;51.024;13.828;2022-09-24T06:55:36;14.40;78.30
9919;DHT22;4998;51.024;13.828;2022-09-24T06:58:04;14.50;78.30
9919;DHT22;4998;51.024;13.828;2022-09-24T07:00:34;14.60;78.20
9919;DHT22;4998;51.024;13.828;2022-09-24T07:03:01;14.70;78.00
9919;DHT22;4998;51.024;13.828;2022-09-24T07:05:28;14.80;78.00
9919;DHT22;4998;51.024;13.828;2022-09-24T07:07:55;14.90;77.80
9919;DHT22;4998;51.024;13.828;2022-09-24T07:10:22;14.90;77.50
9919;DHT22;4998;51.024;13.828;2022-09-24T07:12:50;15.00;77.60
9919;DHT22;4998;51.024;13.828;2022-09-24T07:15:17;15.10;77.60
9919;DHT22;4998;51.024;13.828;2022-09-24T07:17:45;15.20;77.80
9919;DHT22;4998;51.024;13.828;2022-09-24T07:20:12;15.30;77.80
9919;DHT22;4998;51.024;13.828;2022-09-24T07:22:40;15.40;77.80
9919;DHT22;4998;51.024;13.828;2022-09-24T07:25:08;15.60;77.70
9919;DHT22;4998;51.024;13.828;2022-09-24T07:27:36;15.70;77.50
9919;DHT22;4998;51.024;13.828;2022-09-24T07:30:04;15.80;77.10
9919;DHT22;4998;51.024;13.828;2022-09-24T07:32:32;15.90;77.60
9919;DHT22;4998;51.024;13.828;2022-09-24T07:35:00;16.00;76.50
9919;DHT22;4998;51.024;13.828;2022-09-24T07:37:27;16.10;76.20
9919;DHT22;4998;51.024;13.828;2022-09-24T07:39:57;16.10;75.90
9919;DHT22;4998;51.024;13.828;2022-09-24T07:42:24;16.20;75.80
9919;DHT22;4998;51.024;13.828;2022-09-24T07:44:51;16.30;75.50
9919;DHT22;4998;51.024;13.828;2022-09-24T07:47:18;16.40;75.40
9919;DHT22;4998;51.024;13.828;2022-09-24T07:49:44;16.40;75.10
9919;DHT22;4998;51.024;13.828;2022-09-24T07:52:13;16.50;74.70
9919;DHT22;4998;51.024;13.828;2022-09-24T07:54:40;16.60;74.40
9919;DHT22;4998;51.024;13.828;2022-09-24T07:57:09;16.70;74.40
9919;DHT22;4998;51.024;13.828;2022-09-24T07:59:38;16.70;74.20
9919;DHT22;4998;51.024;13.828;2022-09-24T08:02:13;16.80;74.50
9919;DHT22;4998;51.024;13.828;2022-09-24T08:04:41;16.90;73.80
9919;DHT22;4998;51.024;13.828;2022-09-24T08:07:09;16.90;73.80
9919;DHT22;4998;51.024;13.828;2022-09-24T08:09:38;17.00;73.70
9919;DHT22;4998;51.024;13.828;2022-09-24T08:12:05;17.00;73.60
9919;DHT22;4998;51.024;13.828;2022-09-24T08:14:33;17.10;73.70
9919;DHT22;4998;51.024;13.828;2022-09-24T08:17:00;17.20;73.70
9919;DHT22;4998;51.024;13.828;2022-09-24T08:19:27;17.20;73.50
9919;DHT22;4998;51.024;13.828;2022-09-24T08:21:55;17.20;73.30
9919;DHT22;4998;51.024;13.828;2022-09-24T08:24:23;17.30;73.20
9919;DHT22;4998;51.024;13.828;2022-09-24T08:26:51;17.30;73.30
9919;DHT22;4998;51.024;13.828;2022-09-24T08:29:18;17.40;73.30
9919;DHT22;4998;51.024;13.828;2022-09-24T08:31:45;17.40;72.80
9919;DHT22;4998;51.024;13.828;2022-09-24T08:34:12;17.50;73.00
9919;DHT22;4998;51.024;13.828;2022-09-24T08:36:39;17.50;72.80
9919;DHT22;4998;51.024;13.828;2022-09-24T08:39:06;17.50;72.80
9919;DHT22;4998;51.024;13.828;2022-09-24T08:41:47;17.60;72.60
9919;DHT22;4998;51.024;13.828;2022-09-24T08:44:20;17.60;72.70
9919;DHT22;4998;51.024;13.828;2022-09-24T08:47:10;17.70;72.50
9919;DHT22;4998;51.024;13.828;2022-09-24T08:50:00;17.80;72.50
9919;DHT22;4998;51.024;13.828;2022-09-24T08:52:36;17.80;72.30
9919;DHT22;4998;51.024;13.828;2022-09-24T08:55:10;17.90;72.30
9919;DHT22;4998;51.024;13.828;2022-09-24T08:57:43;17.90;72.00
9919;DHT22;4998;51.024;13.828;2022-09-24T09:00:14;18.00;71.90
9919;DHT22;4998;51.024;13.828;2022-09-24T09:02:49;18.10;71.90
9919;DHT22;4998;51.024;13.828;2022-09-24T09:05:23;18.10;71.80
9919;DHT22;4998;51.024;13.828;2022-09-24T09:07:59;18.20;71.70
9919;DHT22;4998;51.024;13.828;2022-09-24T09:10:30;18.20;71.50
9919;DHT22;4998;51.024;13.828;2022-09-24T09:13:04;18.20;71.10
9919;DHT22;4998;51.024;13.828;2022-09-24T09:15:37;18.30;71.40
9919;DHT22;4998;51.024;13.828;2022-09-24T09:18:12;18.30;71.20
9919;DHT22;4998;51.024;13.828;2022-09-24T09:20:41;18.40;70.80
9919;DHT22;4998;51.024;13.828;2022-09-24T09:23:12;18.40;71.10
9919;DHT22;4998;51.024;13.828;2022-09-24T09:25:45;18.50;71.20
9919;DHT22;4998;51.024;13.828;2022-09-24T09:28:17;18.50;71.20
9919;DHT22;4998;51.024;13.828;2022-09-24T09:30:55;18.60;71.70
9919;DHT22;4998;51.024;13.828;2022-09-24T09:33:39;18.60;71.50
9919;DHT22;4998;51.024;13.828;2022-09-24T09:36:22;18.70;71.30
9919;DHT22;4998;51.024;13.828;2022-09-24T09:38:57;18.80;71.10
9919;DHT22;4998;51.024;13.828;2022-09-24T09:41:33;18.90;71.00
9919;DHT22;4998;51.024;13.828;2022-09-24T09:44:10;19.00;71.10
9919;DHT22;4998;51.024;13.828;2022-09-24T09:46:45;19.10;71.10
9919;DHT22;4998;51.024;13.828;2022-09-24T09:49:13;19.10;70.80
9919;DHT22;4998;51.024;13.828;2022-09-24T09:51:42;19.20;70.70
9919;DHT22;4998;51.024;13.828;2022-09-24T09:54:11;19.30;70.50
9919;DHT22;4998;51.024;13.828;2022-09-24T09:56:42;19.30;70.60
9919;DHT22;4998;51.024;13.828;2022-09-24T09:59:16;19.40;70.50
9919;DHT22;4998;51.024;13.828;2022-09-24T10:01:47;19.50;70.20
9919;DHT22;4998;51.024;13.828;2022-09-24T10:04:26;19.70;70.30
9919;DHT22;4998;51.024;13.828;2022-09-24T10:07:03;19.70;69.90
9919;DHT22;4998;51.024;13.828;2022-09-24T10:09:30;19.80;70.00
9919;DHT22;4998;51.024;13.828;2022-09-24T10:12:11;19.90;70.10
9919;DHT22;4998;51.024;13.828;2022-09-24T10:14:40;20.00;70.10
9919;DHT22;4998;51.024;13.828;2022-09-24T10:17:12;20.10;70.00
9919;DHT22;4998;51.024;13.828;2022-09-24T10:19:41;20.20;69.50
9919;DHT22;4998;51.024;13.828;2022-09-24T10:22:15;20.40;70.20
9919;DHT22;4998;51.024;13.828;2022-09-24T10:24:43;20.50;70.00
9919;DHT22;4998;51.024;13.828;2022-09-24T10:27:11;20.50;68.90
9919;DHT22;4998;51.024;13.828;2022-09-24T10:29:39;20.70;68.20
9919;DHT22;4998;51.024;13.828;2022-09-24T10:32:25;20.80;68.40
9919;DHT22;4998;51.024;13.828;2022-09-24T10:34:54;20.90;68.50
9919;DHT22;4998;51.024;13.828;2022-09-24T10:37:22;21.00;68.20
9919;DHT22;4998;51.024;13.828;2022-09-24T10:39:56;21.10;67.60
9919;DHT22;4998;51.024;13.828;2022-09-24T10:42:24;21.20;66.20
9919;DHT22;4998;51.024;13.828;2022-09-24T10:44:52;21.20;65.60
9919;DHT22;4998;51.024;13.828;2022-09-24T10:47:26;21.30;65.10
9919;DHT22;4998;51.024;13.828;2022-09-24T10:50:11;21.30;64.00
9919;DHT22;4998;51.024;13.828;2022-09-24T10:52:45;21.40;64.10
9919;DHT22;4998;51.024;13.828;2022-09-24T10:55:21;21.40;63.20
9919;DHT22;4998;51.024;13.828;2022-09-24T10:57:58;21.40;62.60
9919;DHT22;4998;51.024;13.828;2022-09-24T11:00:35;21.40;62.30
9919;DHT22;4998;51.024;13.828;2022-09-24T11:06:16;21.40;61.90
9919;DHT22;4998;51.024;13.828;2022-09-24T11:08:59;21.50;61.90
9919;DHT22;4998;51.024;13.828;2022-09-24T11:11:38;21.50;61.40
9919;DHT22;4998;51.024;13.828;2022-09-24T11:14:26;21.50;61.60
9919;DHT22;4998;51.024;13.828;2022-09-24T11:17:24;21.50;60.90
9919;DHT22;4998;51.024;13.828;2022-09-24T11:20:08;21.50;61.00
9919;DHT22;4998;51.024;13.828;2022-09-24T11:22:47;21.50;60.70
9919;DHT22;4998;51.024;13.828;2022-09-24T11:25:25;21.50;61.00
9919;DHT22;4998;51.024;13.828;2022-09-24T11:28:09;21.50;60.60
9919;DHT22;4998;51.024;13.828;2022-09-24T11:30:46;21.50;60.20
9919;DHT22;4998;51.024;13.828;2022-09-24T11:33:29;21.50;59.90
9919;DHT22;4998;51.024;13.828;2022-09-24T11:36:24;21.50;59.60
9919;DHT22;4998;51.024;13.828;2022-09-24T11:39:07;21.50;59.70
9919;DHT22;4998;51.024;13.828;2022-09-24T11:41:43;21.50;59.20
9919;DHT22;4998;51.024;13.828;2022-09-24T11:44:29;21.50;59.20
9919;DHT22;4998;51.024;13.828;2022-09-24T11:47:12;21.50;58.80
9919;DHT22;4998;51.024;13.828;2022-09-24T11:49:49;21.50;59.00
9919;DHT22;4998;51.024;13.828;2022-09-24T11:52:28;21.50;58.80
9919;DHT22;4998;51.024;13.828;2022-09-24T11:55:03;21.50;58.60
9919;DHT22;4998;51.024;13.828;2022-09-24T11:57:39;21.50;58.60
9919;DHT22;4998;51.024;13.828;2022-09-24T12:00:13;21.60;58.70
9919;DHT22;4998;51.024;13.828;2022-09-24T12:02:44;21.60;58.30
9919;DHT22;4998;51.024;13.828;2022-09-24T12:05:19;21.60;58.30
9919;DHT22;4998;51.024;13.828;2022-09-24T12:07:53;21.60;57.90
9919;DHT22;4998;51.024;13.828;2022-09-24T12:10:25;21.60;58.00
9919;DHT22;4998;51.024;13.828;2022-09-24T12:13:01;21.70;57.70
9919;DHT22;4998;51.024;13.828;2022-09-24T12:15:44;21.70;57.50
9919;DHT22;4998;51.024;13.828;2022-09-24T12:18:16;21.70;57.60
9919;DHT22;4998;51.024;13.828;2022-09-24T12:20:49;21.80;57.50
9919;DHT22;4998;51.024;13.828;2022-09-24T12:23:21;21.80;57.20
9919;DHT22;4998;51.024;13.828;2022-09-24T12:25:52;21.90;57.10
9919;DHT22;4998;51.024;13.828;2022-09-24T12:28:21;21.90;57.20
9919;DHT22;4998;51.024;13.828;2022-09-24T12:31:11;21.90;57.20
9919;DHT22;4998;51.024;13.828;2022-09-24T12:34:01;22.00;57.10
9919;DHT22;4998;51.024;13.828;2022-09-24T12:36:41;22.00;57.30
9919;DHT22;4998;51.024;13.828;2022-09-24T12:39:19;21.90;57.10
9919;DHT22;4998;51.024;13.828;2022-09-24T12:41:49;22.10;57.20
9919;DHT22;4998;51.024;13.828;2022-09-24T12:44:27;22.20;56.90
9919;DHT22;4998;51.024;13.828;2022-09-24T12:46:56;22.30;56.90
9919;DHT22;4998;51.024;13.828;2022-09-24T12:49:29;22.30;56.60
9919;DHT22;4998;51.024;13.828;2022-09-24T12:51:59;22.30;56.00
9919;DHT22;4998;51.024;13.828;2022-09-24T12:54:29;22.40;56.10
9919;DHT22;4998;51.024;13.828;2022-09-24T12:57:05;22.40;56.00
9919;DHT22;4998;51.024;13.828;2022-09-24T12:59:32;22.40;55.50
9919;DHT22;4998;51.024;13.828;2022-09-24T13:02:12;22.40;56.20
9919;DHT22;4998;51.024;13.828;2022-09-24T13:04:43;22.50;55.60
9919;DHT22;4998;51.024;13.828;2022-09-24T13:07:26;22.50;55.70
9919;DHT22;4998;51.024;13.828;2022-09-24T13:09:55;22.50;55.60
9919;DHT22;4998;51.024;13.828;2022-09-24T13:12:28;22.50;55.50
9919;DHT22;4998;51.024;13.828;2022-09-24T13:14:58;22.60;55.30
9919;DHT22;4998;51.024;13.828;2022-09-24T13:17:28;22.60;55.20
9919;DHT22;4998;51.024;13.828;2022-09-24T13:19:57;22.60;55.10
9919;DHT22;4998;51.024;13.828;2022-09-24T13:22:27;22.60;55.00
9919;DHT22;4998;51.024;13.828;2022-09-24T13:25:18;22.70;54.90
9919;DHT22;4998;51.024;13.828;2022-09-24T13:27:56;22.80;55.00
9919;DHT22;4998;51.024;13.828;2022-09-24T13:30:31;22.70;54.70
9919;DHT22;4998;51.024;13.828;2022-09-24T13:33:03;22.70;54.30
9919;DHT22;4998;51.024;13.828;2022-09-24T13:35:42;22.70;54.60
9919;DHT22;4998;51.024;13.828;2022-09-24T13:38:16;22.70;54.50
9919;DHT22;4998;51.024;13.828;2022-09-24T13:40:52;22.70;54.30
9919;DHT22;4998;51.024;13.828;2022-09-24T13:43:32;22.70;54.50
9919;DHT22;4998;51.024;13.828;2022-09-24T13:46:05;22.70;54.60
9919;DHT22;4998;51.024;13.828;2022-09-24T13:48:35;22.70;54.70
9919;DHT22;4998;51.024;13.828;2022-09-24T13:51:04;22.70;54.30
9919;DHT22;4998;51.024;13.828;2022-09-24T13:53:36;22.70;54.20
9919;DHT22;4998;51.024;13.828;2022-09-24T13:56:12;22.70;53.60
9919;DHT22;4998;51.024;13.828;2022-09-24T13:58:40;22.70;53.40
9919;DHT22;4998;51.024;13.828;2022-09-24T14:01:11;22.60;53.70
9919;DHT22;4998;51.024;13.828;2022-09-24T14:03:40;22.80;53.50
9919;DHT22;4998;51.024;13.828;2022-09-24T14:06:10;22.80;53.60
9919;DHT22;4998;51.024;13.828;2022-09-24T14:08:40;22.80;53.30
9919;DHT22;4998;51.024;13.828;2022-09-24T14:11:17;22.80;53.10
9919;DHT22;4998;51.024;13.828;2022-09-24T14:13:44;22.80;53.60
9919;DHT22;4998;51.024;13.828;2022-09-24T14:16:14;22.90;53.10
9919;DHT22;4998;51.024;13.828;2022-09-24T14:18:42;22.90;52.90
9919;DHT22;4998;51.024;13.828;2022-09-24T14:21:12;22.90;52.90
9919;DHT22;4998;51.024;13.828;2022-09-24T14:23:46;22.90;52.70
9919;DHT22;4998;51.024;13.828;2022-09-24T14:26:23;23.00;52.50
9919;DHT22;4998;51.024;13.828;2022-09-24T14:28:53;23.00;52.30
9919;DHT22;4998;51.024;13.828;2022-09-24T14:31:20;23.00;52.50
9919;DHT22;4998;51.024;13.828;2022-09-24T14:33:47;23.00;52.50
9919;DHT22;4998;51.024;13.828;2022-09-24T14:36:14;23.00;52.70
9919;DHT22;4998;51.024;13.828;2022-09-24T14:38:48;23.00;52.80
9919;DHT22;4998;51.024;13.828;2022-09-24T14:41:20;23.00;52.60
9919;DHT22;4998;51.024;13.828;2022-09-24T14:43:51;23.00;52.80
9919;DHT22;4998;51.024;13.828;2022-09-24T14:46:23;22.90;52.70
9919;DHT22;4998;51.024;13.828;2022-09-24T14:49:03;22.90;52.80
9919;DHT22;4998;51.024;13.828;2022-09-24T14:51:30;22.90;52.50
9919;DHT22;4998;51.024;13.828;2022-09-24T14:53:59;22.80;53.40
9919;DHT22;4998;51.024;13.828;2022-09-24T14:56:29;22.80;52.80
9919;DHT22;4998;51.024;13.828;2022-09-24T14:58:57;22.80;52.70
9919;DHT22;4998;51.024;13.828;2022-09-24T15:01:28;22.80;52.90
9919;DHT22;4998;51.024;13.828;2022-09-24T15:03:57;22.70;52.80
9919;DHT22;4998;51.024;13.828;2022-09-24T15:06:27;22.70;52.80
9919;DHT22;4998;51.024;13.828;2022-09-24T15:08:57;22.70;52.80
9919;DHT22;4998;51.024;13.828;2022-09-24T15:11:26;22.70;52.80
9919;DHT22;4998;51.024;13.828;2022-09-24T15:14:00;22.70;53.00
9919;DHT22;4998;51.024;13.828;2022-09-24T15:16:29;22.70;52.90
9919;DHT22;4998;51.024;13.828;2022-09-24T15:19:13;22.60;53.00
9919;DHT22;4998;51.024;13.828;2022-09-24T15:21:42;22.60;52.80
9919;DHT22;4998;51.024;13.828;2022-09-24T15:24:09;22.60;53.00
9919;DHT22;4998;51.024;13.828;2022-09-24T15:26:40;22.60;53.10
9919;DHT22;4998;51.024;13.828;2022-09-24T15:29:16;22.60;53.10
9919;DHT22;4998;51.024;13.828;2022-09-24T15:31:44;22.60;52.80
9919;DHT22;4998;51.024;13.828;2022-09-24T15:34:11;22.50;52.90
9919;DHT22;4998;51.024;13.828;2022-09-24T15:36:38;22.50;53.00
9919;DHT22;4998;51.024;13.828;2022-09-24T15:39:05;22.50;53.20
9919;DHT22;4998;51.024;13.828;2022-09-24T15:41:32;22.50;53.20
9919;DHT22;4998;51.024;13.828;2022-09-24T15:43:59;22.40;53.10
9919;DHT22;4998;51.024;13.828;2022-09-24T15:46:27;22.40;53.40
9919;DHT22;4998;51.024;13.828;2022-09-24T15:48:54;22.40;53.50
9919;DHT22;4998;51.024;13.828;2022-09-24T15:51:21;22.30;53.50
9919;DHT22;4998;51.024;13.828;2022-09-24T15:53:49;22.30;53.60
9919;DHT22;4998;51.024;13.828;2022-09-24T15:56:16;22.30;53.60
9919;DHT22;4998;51.024;13.828;2022-09-24T15:58:44;22.20;53.50
9919;DHT22;4998;51.024;13.828;2022-09-24T16:01:15;22.20;53.60
9919;DHT22;4998;51.024;13.828;2022-09-24T16:03:44;22.10;53.50
9919;DHT22;4998;51.024;13.828;2022-09-24T16:06:11;22.10;53.60
9919;DHT22;4998;51.024;13.828;2022-09-24T16:08:39;22.00;53.60
9919;DHT22;4998;51.024;13.828;2022-09-24T16:11:07;22.00;53.80
9919;DHT22;4998;51.024;13.828;2022-09-24T16:13:34;21.90;53.70
9919;DHT22;4998;51.024;13.828;2022-09-24T16:16:05;21.90;53.90